sensor_id;sensor_type;location;lat;lon;timestamp;P1;durP1;ratioP1;P2;durP2;ratioP2
7515;SDS011;3799;47.184;8.538;2024-02-16T00:00:13;2.72;;;1.00;;
7515;SDS011;3799;47.184;8.538;2024-02-16T00:02:44;2.40;;;1.10;;
7515;SDS011;3799;47.184;8.538;2024-02-16T00:05:18;2.97;;;0.95;;
7515;SDS011;3799;47.184;8.538;2024-02-16T00:07:46;4.25;;;1.40;;
7515;SDS011;3799;47.184;8.538;2024-02-16T00:10:24;2.65;;;1.33;;
7515;SDS011;3799;47.184;8.538;2024-02-16T00:12:51;2.40;;;1.20;;
7515;SDS011;3799;47.184;8.538;2024-02-16T00:15:21;3.17;;;1.30;;
7515;SDS011;3799;47.184;8.538;2024-02-16T00:17:53;2.05;;;0.77;;
7515;SDS011;3799;47.184;8.538;2024-02-16T00:20:21;1.50;;;0.60;;
7515;SDS011;3799;47.184;8.538;2024-02-16T00:22:51;1.65;;;0.82;;
7515;SDS011;3799;47.184;8.538;2024-02-16T00:25:18;2.45;;;1.02;;
7515;SDS011;3799;47.184;8.538;2024-02-16T00:27:46;1.73;;;0.65;;
7515;SDS011;3799;47.184;8.538;2024-02-16T00:30:14;1.60;;;0.63;;
7515;SDS011;3799;47.184;8.538;2024-02-16T00:32:44;3.55;;;1.08;;
7515;SDS011;3799;47.184;8.538;2024-02-16T00:35:23;2.58;;;1.10;;
7515;SDS011;3799;47.184;8.538;2024-02-16T00:37:50;4.07;;;1.10;;
7515;SDS011;3799;47.184;8.538;2024-02-16T00:40:24;2.00;;;1.02;;
7515;SDS011;3799;47.184;8.538;2024-02-16T00:42:53;2.50;;;0.80;;
7515;SDS011;3799;47.184;8.538;2024-02-16T00:45:21;2.10;;;1.02;;
7515;SDS011;3799;47.184;8.538;2024-02-16T00:47:49;2.33;;;0.88;;
7515;SDS011;3799;47.184;8.538;2024-02-16T00:50:16;2.38;;;0.93;;
7515;SDS011;3799;47.184;8.538;2024-02-16T00:52:49;3.80;;;1.33;;
7515;SDS011;3799;47.184;8.538;2024-02-16T00:55:21;4.47;;;1.33;;
7515;SDS011;3799;47.184;8.538;2024-02-16T00:57:48;4.45;;;1.20;;
7515;SDS011;3799;47.184;8.538;2024-02-16T01:00:18;5.70;;;1.67;;
7515;SDS011;3799;47.184;8.538;2024-02-16T01:02:47;4.47;;;1.85;;
7515;SDS011;3799;47.184;8.538;2024-02-16T01:05:15;4.25;;;1.85;;
7515;SDS011;3799;47.184;8.538;2024-02-16T01:07:44;3.53;;;1.83;;
7515;SDS011;3799;47.184;8.538;2024-02-16T01:10:12;4.50;;;1.55;;
7515;SDS011;3799;47.184;8.538;2024-02-16T01:12:45;5.15;;;1.90;;
7515;SDS011;3799;47.184;8.538;2024-02-16T01:17:42;3.88;;;1.60;;
7515;SDS011;3799;47.184;8.538;2024-02-16T01:20:10;2.47;;;1.33;;
7515;SDS011;3799;47.184;8.538;2024-02-16T01:22:39;3.53;;;1.20;;
7515;SDS011;3799;47.184;8.538;2024-02-16T01:25:09;2.42;;;1.00;;
7515;SDS011;3799;47.184;8.538;2024-02-16T01:27:37;4.13;;;1.10;;
7515;SDS011;3799;47.184;8.538;2024-02-16T01:30:05;4.47;;;1.30;;
7515;SDS011;3799;47.184;8.538;2024-02-16T01:32:37;2.30;;;0.88;;
7515;SDS011;3799;47.184;8.538;2024-02-16T01:35:06;1.80;;;1.02;;
7515;SDS011;3799;47.184;8.538;2024-02-16T01:37:37;2.58;;;1.10;;
7515;SDS011;3799;47.184;8.538;2024-02-16T01:40:08;4.85;;;1.08;;
7515;SDS011;3799;47.184;8.538;2024-02-16T01:42:41;4.15;;;1.42;;
7515;SDS011;3799;47.184;8.538;2024-02-16T01:45:11;3.30;;;1.35;;
7515;SDS011;3799;47.184;8.538;2024-02-16T01:47:42;4.00;;;1.73;;
7515;SDS011;3799;47.184;8.538;2024-02-16T01:50:11;3.95;;;1.40;;
7515;SDS011;3799;47.184;8.538;2024-02-16T01:52:38;2.38;;;1.25;;
7515;SDS011;3799;47.184;8.538;2024-02-16T01:55:06;2.00;;;0.90;;
7515;SDS011;3799;47.184;8.538;2024-02-16T01:57:41;2.05;;;0.82;;
7515;SDS011;3799;47.184;8.538;2024-02-16T02:00:16;2.90;;;1.10;;
7515;SDS011;3799;47.184;8.538;2024-02-16T02:02:45;5.35;;;1.40;;
7515;SDS011;3799;47.184;8.538;2024-02-16T02:05:13;1.52;;;0.60;;
7515;SDS011;3799;47.184;8.538;2024-02-16T02:07:44;1.55;;;0.55;;
7515;SDS011;3799;47.184;8.538;2024-02-16T02:10:12;2.65;;;0.68;;
7515;SDS011;3799;47.184;8.538;2024-02-16T02:12:39;1.65;;;0.63;;
7515;SDS011;3799;47.184;8.538;2024-02-16T02:15:09;1.15;;;0.20;;
7515;SDS011;3799;47.184;8.538;2024-02-16T02:17:45;1.90;;;0.57;;
7515;SDS011;3799;47.184;8.538;2024-02-16T02:20:16;1.73;;;0.57;;
7515;SDS011;3799;47.184;8.538;2024-02-16T02:22:44;1.38;;;0.50;;
7515;SDS011;3799;47.184;8.538;2024-02-16T02:25:12;1.05;;;0.52;;
7515;SDS011;3799;47.184;8.538;2024-02-16T02:27:39;2.20;;;0.60;;
7515;SDS011;3799;47.184;8.538;2024-02-16T02:30:07;1.58;;;0.63;;
7515;SDS011;3799;47.184;8.538;2024-02-16T02:32:39;2.15;;;0.63;;
7515;SDS011;3799;47.184;8.538;2024-02-16T02:35:14;1.65;;;0.63;;
7515;SDS011;3799;47.184;8.538;2024-02-16T02:37:45;2.97;;;1.17;;
7515;SDS011;3799;47.184;8.538;2024-02-16T02:40:12;3.53;;;1.20;;
7515;SDS011;3799;47.184;8.538;2024-02-16T02:42:40;2.30;;;0.95;;
7515;SDS011;3799;47.184;8.538;2024-02-16T02:45:09;4.53;;;0.93;;
7515;SDS011;3799;47.184;8.538;2024-02-16T02:47:36;2.20;;;1.00;;
7515;SDS011;3799;47.184;8.538;2024-02-16T02:50:04;3.10;;;1.00;;
7515;SDS011;3799;47.184;8.538;2024-02-16T02:52:32;2.17;;;0.95;;
7515;SDS011;3799;47.184;8.538;2024-02-16T02:55:00;3.13;;;1.30;;
7515;SDS011;3799;47.184;8.538;2024-02-16T02:57:34;3.67;;;1.27;;
7515;SDS011;3799;47.184;8.538;2024-02-16T03:00:04;4.20;;;1.33;;
7515;SDS011;3799;47.184;8.538;2024-02-16T03:02:35;1.95;;;0.80;;
7515;SDS011;3799;47.184;8.538;2024-02-16T03:05:07;3.60;;;1.35;;
7515;SDS011;3799;47.184;8.538;2024-02-16T03:07:35;3.38;;;1.42;;
7515;SDS011;3799;47.184;8.538;2024-02-16T03:10:03;1.95;;;1.02;;
7515;SDS011;3799;47.184;8.538;2024-02-16T03:12:36;2.45;;;1.02;;
7515;SDS011;3799;47.184;8.538;2024-02-16T03:15:03;5.03;;;1.20;;
7515;SDS011;3799;47.184;8.538;2024-02-16T03:17:34;2.05;;;0.80;;
7515;SDS011;3799;47.184;8.538;2024-02-16T03:20:04;2.75;;;0.65;;
7515;SDS011;3799;47.184;8.538;2024-02-16T03:22:32;2.20;;;0.98;;
7515;SDS011;3799;47.184;8.538;2024-02-16T03:25:01;2.92;;;1.25;;
7515;SDS011;3799;47.184;8.538;2024-02-16T03:27:29;2.50;;;1.10;;
7515;SDS011;3799;47.184;8.538;2024-02-16T03:29:56;4.90;;;1.63;;
7515;SDS011;3799;47.184;8.538;2024-02-16T03:32:24;4.05;;;1.10;;
7515;SDS011;3799;47.184;8.538;2024-02-16T03:34:53;5.47;;;1.98;;
7515;SDS011;3799;47.184;8.538;2024-02-16T03:37:20;4.13;;;1.65;;
7515;SDS011;3799;47.184;8.538;2024-02-16T03:39:47;4.38;;;2.00;;
7515;SDS011;3799;47.184;8.538;2024-02-16T03:42:18;3.47;;;2.05;;
7515;SDS011;3799;47.184;8.538;2024-02-16T03:44:48;4.22;;;1.42;;
7515;SDS011;3799;47.184;8.538;2024-02-16T03:47:19;3.20;;;1.60;;
7515;SDS011;3799;47.184;8.538;2024-02-16T03:49:47;5.60;;;1.30;;
7515;SDS011;3799;47.184;8.538;2024-02-16T03:52:17;2.08;;;0.95;;
7515;SDS011;3799;47.184;8.538;2024-02-16T03:54:45;2.67;;;0.80;;
7515;SDS011;3799;47.184;8.538;2024-02-16T03:57:14;2.97;;;1.10;;
7515;SDS011;3799;47.184;8.538;2024-02-16T03:59:48;1.88;;;0.82;;
7515;SDS011;3799;47.184;8.538;2024-02-16T04:02:21;2.08;;;0.80;;
7515;SDS011;3799;47.184;8.538;2024-02-16T04:04:56;1.67;;;0.68;;
7515;SDS011;3799;47.184;8.538;2024-02-16T04:07:23;2.13;;;0.57;;
7515;SDS011;3799;47.184;8.538;2024-02-16T04:09:54;1.35;;;0.55;;
7515;SDS011;3799;47.184;8.538;2024-02-16T04:12:30;1.17;;;0.57;;
7515;SDS011;3799;47.184;8.538;2024-02-16T04:14:57;3.05;;;1.00;;
7515;SDS011;3799;47.184;8.538;2024-02-16T04:17:26;2.40;;;1.08;;
7515;SDS011;3799;47.184;8.538;2024-02-16T04:19:56;1.92;;;0.98;;
7515;SDS011;3799;47.184;8.538;2024-02-16T04:22:31;2.05;;;0.95;;
7515;SDS011;3799;47.184;8.538;2024-02-16T04:25:04;2.90;;;0.93;;
7515;SDS011;3799;47.184;8.538;2024-02-16T04:27:32;3.53;;;1.30;;
7515;SDS011;3799;47.184;8.538;2024-02-16T04:30:05;5.88;;;1.40;;
7515;SDS011;3799;47.184;8.538;2024-02-16T04:32:36;5.07;;;1.55;;
7515;SDS011;3799;47.184;8.538;2024-02-16T04:35:06;2.88;;;0.73;;
7515;SDS011;3799;47.184;8.538;2024-02-16T04:37:44;1.70;;;0.82;;
7515;SDS011;3799;47.184;8.538;2024-02-16T04:40:23;1.70;;;0.75;;
7515;SDS011;3799;47.184;8.538;2024-02-16T04:42:53;2.88;;;1.08;;
7515;SDS011;3799;47.184;8.538;2024-02-16T04:45:21;2.45;;;0.93;;
7515;SDS011;3799;47.184;8.538;2024-02-16T04:47:49;3.13;;;1.08;;
7515;SDS011;3799;47.184;8.538;2024-02-16T04:50:19;5.07;;;0.90;;
7515;SDS011;3799;47.184;8.538;2024-02-16T04:52:51;1.55;;;0.52;;
7515;SDS011;3799;47.184;8.538;2024-02-16T04:55:24;2.70;;;0.80;;
7515;SDS011;3799;47.184;8.538;2024-02-16T04:57:56;2.55;;;0.95;;
7515;SDS011;3799;47.184;8.538;2024-02-16T05:00:24;2.15;;;0.88;;
7515;SDS011;3799;47.184;8.538;2024-02-16T05:03:07;2.63;;;0.98;;
7515;SDS011;3799;47.184;8.538;2024-02-16T05:05:35;1.88;;;0.88;;
7515;SDS011;3799;47.184;8.538;2024-02-16T05:08:06;2.08;;;0.88;;
7515;SDS011;3799;47.184;8.538;2024-02-16T05:10:36;1.85;;;0.70;;
7515;SDS011;3799;47.184;8.538;2024-02-16T05:13:08;2.92;;;1.20;;
7515;SDS011;3799;47.184;8.538;2024-02-16T05:15:36;1.45;;;0.45;;
7515;SDS011;3799;47.184;8.538;2024-02-16T05:18:08;2.25;;;0.63;;
7515;SDS011;3799;47.184;8.538;2024-02-16T05:23:14;1.65;;;0.35;;
7515;SDS011;3799;47.184;8.538;2024-02-16T05:25:41;2.17;;;0.68;;
7515;SDS011;3799;47.184;8.538;2024-02-16T05:28:09;1.80;;;0.60;;
7515;SDS011;3799;47.184;8.538;2024-02-16T05:30:46;4.15;;;0.73;;
7515;SDS011;3799;47.184;8.538;2024-02-16T05:33:15;5.30;;;0.80;;
7515;SDS011;3799;47.184;8.538;2024-02-16T05:35:43;1.95;;;0.60;;
7515;SDS011;3799;47.184;8.538;2024-02-16T05:38:12;1.70;;;0.55;;
7515;SDS011;3799;47.184;8.538;2024-02-16T05:41:02;2.05;;;0.57;;
7515;SDS011;3799;47.184;8.538;2024-02-16T05:43:29;0.70;;;0.30;;
7515;SDS011;3799;47.184;8.538;2024-02-16T05:45:57;1.52;;;0.38;;
7515;SDS011;3799;47.184;8.538;2024-02-16T05:48:25;1.98;;;0.68;;
7515;SDS011;3799;47.184;8.538;2024-02-16T05:51:03;0.88;;;0.22;;
7515;SDS011;3799;47.184;8.538;2024-02-16T05:53:32;1.13;;;0.32;;
7515;SDS011;3799;47.184;8.538;2024-02-16T05:56:01;1.27;;;0.30;;
7515;SDS011;3799;47.184;8.538;2024-02-16T05:58:28;0.73;;;0.30;;
7515;SDS011;3799;47.184;8.538;2024-02-16T06:01:00;1.90;;;0.38;;
7515;SDS011;3799;47.184;8.538;2024-02-16T06:03:28;1.40;;;0.32;;
7515;SDS011;3799;47.184;8.538;2024-02-16T06:05:55;0.90;;;0.20;;
7515;SDS011;3799;47.184;8.538;2024-02-16T06:08:25;1.17;;;0.40;;
7515;SDS011;3799;47.184;8.538;2024-02-16T06:10:56;1.88;;;0.60;;
7515;SDS011;3799;47.184;8.538;2024-02-16T06:13:29;1.08;;;0.35;;
7515;SDS011;3799;47.184;8.538;2024-02-16T06:15:57;1.77;;;0.68;;
7515;SDS011;3799;47.184;8.538;2024-02-16T06:18:28;0.73;;;0.28;;
7515;SDS011;3799;47.184;8.538;2024-02-16T06:21:14;0.73;;;0.30;;
7515;SDS011;3799;47.184;8.538;2024-02-16T06:23:49;2.33;;;0.47;;
7515;SDS011;3799;47.184;8.538;2024-02-16T06:26:22;3.33;;;0.40;;
7515;SDS011;3799;47.184;8.538;2024-02-16T06:28:53;1.95;;;0.60;;
7515;SDS011;3799;47.184;8.538;2024-02-16T06:31:20;4.45;;;0.98;;
7515;SDS011;3799;47.184;8.538;2024-02-16T06:33:48;1.85;;;0.70;;
7515;SDS011;3799;47.184;8.538;2024-02-16T06:36:15;3.05;;;0.88;;
7515;SDS011;3799;47.184;8.538;2024-02-16T06:38:45;2.30;;;0.90;;
7515;SDS011;3799;47.184;8.538;2024-02-16T06:41:16;1.65;;;0.60;;
7515;SDS011;3799;47.184;8.538;2024-02-16T06:43:43;0.73;;;0.38;;
7515;SDS011;3799;47.184;8.538;2024-02-16T06:46:15;1.40;;;0.50;;
7515;SDS011;3799;47.184;8.538;2024-02-16T06:48:42;1.17;;;0.30;;
7515;SDS011;3799;47.184;8.538;2024-02-16T06:51:15;2.67;;;0.80;;
7515;SDS011;3799;47.184;8.538;2024-02-16T06:53:45;2.40;;;0.50;;
7515;SDS011;3799;47.184;8.538;2024-02-16T06:56:13;2.50;;;0.52;;
7515;SDS011;3799;47.184;8.538;2024-02-16T06:58:43;1.80;;;0.90;;
7515;SDS011;3799;47.184;8.538;2024-02-16T07:01:15;2.17;;;0.85;;
7515;SDS011;3799;47.184;8.538;2024-02-16T07:03:47;1.65;;;0.40;;
7515;SDS011;3799;47.184;8.538;2024-02-16T07:06:16;1.85;;;0.47;;
7515;SDS011;3799;47.184;8.538;2024-02-16T07:08:49;1.40;;;0.65;;
7515;SDS011;3799;47.184;8.538;2024-02-16T07:11:17;2.45;;;0.65;;
7515;SDS011;3799;47.184;8.538;2024-02-16T07:13:47;4.82;;;0.65;;
7515;SDS011;3799;47.184;8.538;2024-02-16T07:16:15;2.72;;;0.70;;
7515;SDS011;3799;47.184;8.538;2024-02-16T07:18:48;2.70;;;0.95;;
7515;SDS011;3799;47.184;8.538;2024-02-16T07:21:17;4.47;;;0.70;;
7515;SDS011;3799;47.184;8.538;2024-02-16T07:23:53;2.42;;;0.80;;
7515;SDS011;3799;47.184;8.538;2024-02-16T07:26:21;1.88;;;0.63;;
7515;SDS011;3799;47.184;8.538;2024-02-16T07:31:19;2.83;;;1.17;;
7515;SDS011;3799;47.184;8.538;2024-02-16T07:33:55;2.05;;;0.65;;
7515;SDS011;3799;47.184;8.538;2024-02-16T07:36:24;2.67;;;0.90;;
7515;SDS011;3799;47.184;8.538;2024-02-16T07:38:54;4.25;;;1.38;;
7515;SDS011;3799;47.184;8.538;2024-02-16T07:41:22;2.80;;;1.25;;
7515;SDS011;3799;47.184;8.538;2024-02-16T07:43:49;3.40;;;1.17;;
7515;SDS011;3799;47.184;8.538;2024-02-16T07:46:18;2.90;;;1.20;;
7515;SDS011;3799;47.184;8.538;2024-02-16T07:48:45;2.40;;;0.98;;
7515;SDS011;3799;47.184;8.538;2024-02-16T07:51:14;3.00;;;1.17;;
7515;SDS011;3799;47.184;8.538;2024-02-16T07:53:42;2.83;;;1.27;;
7515;SDS011;3799;47.184;8.538;2024-02-16T07:56:13;4.25;;;1.98;;
7515;SDS011;3799;47.184;8.538;2024-02-16T07:58:41;4.60;;;1.58;;
7515;SDS011;3799;47.184;8.538;2024-02-16T08:01:12;2.55;;;1.17;;
7515;SDS011;3799;47.184;8.538;2024-02-16T08:03:42;2.92;;;1.20;;
7515;SDS011;3799;47.184;8.538;2024-02-16T08:06:10;2.50;;;1.25;;
7515;SDS011;3799;47.184;8.538;2024-02-16T08:08:39;4.43;;;1.65;;
7515;SDS011;3799;47.184;8.538;2024-02-16T08:11:09;6.78;;;1.73;;
7515;SDS011;3799;47.184;8.538;2024-02-16T08:13:37;4.03;;;1.15;;
7515;SDS011;3799;47.184;8.538;2024-02-16T08:16:05;4.38;;;1.77;;
7515;SDS011;3799;47.184;8.538;2024-02-16T08:18:34;3.28;;;1.35;;
7515;SDS011;3799;47.184;8.538;2024-02-16T08:21:02;4.93;;;1.67;;
7515;SDS011;3799;47.184;8.538;2024-02-16T08:23:31;3.00;;;1.23;;
7515;SDS011;3799;47.184;8.538;2024-02-16T08:26:01;3.97;;;1.52;;
7515;SDS011;3799;47.184;8.538;2024-02-16T08:28:30;3.50;;;1.88;;
7515;SDS011;3799;47.184;8.538;2024-02-16T08:30:58;3.13;;;1.35;;
7515;SDS011;3799;47.184;8.538;2024-02-16T08:33:26;6.68;;;1.85;;
7515;SDS011;3799;47.184;8.538;2024-02-16T08:35:55;3.60;;;1.60;;
7515;SDS011;3799;47.184;8.538;2024-02-16T08:38:25;4.05;;;1.40;;
7515;SDS011;3799;47.184;8.538;2024-02-16T08:40:53;4.30;;;1.92;;
7515;SDS011;3799;47.184;8.538;2024-02-16T08:43:20;5.78;;;1.63;;
7515;SDS011;3799;47.184;8.538;2024-02-16T08:45:48;2.92;;;1.45;;
7515;SDS011;3799;47.184;8.538;2024-02-16T08:48:15;4.57;;;1.90;;
7515;SDS011;3799;47.184;8.538;2024-02-16T08:50:43;4.22;;;1.45;;
7515;SDS011;3799;47.184;8.538;2024-02-16T08:53:10;3.45;;;1.40;;
7515;SDS011;3799;47.184;8.538;2024-02-16T08:55:41;3.58;;;1.60;;
7515;SDS011;3799;47.184;8.538;2024-02-16T08:58:08;2.85;;;1.73;;
7515;SDS011;3799;47.184;8.538;2024-02-16T09:00:37;3.53;;;1.60;;
7515;SDS011;3799;47.184;8.538;2024-02-16T09:03:06;3.85;;;1.63;;
7515;SDS011;3799;47.184;8.538;2024-02-16T09:05:40;3.97;;;1.25;;
7515;SDS011;3799;47.184;8.538;2024-02-16T09:08:09;2.53;;;1.15;;
7515;SDS011;3799;47.184;8.538;2024-02-16T09:10:41;5.30;;;1.83;;
7515;SDS011;3799;47.184;8.538;2024-02-16T09:13:08;5.47;;;1.58;;
7515;SDS011;3799;47.184;8.538;2024-02-16T09:15:38;3.30;;;1.23;;
7515;SDS011;3799;47.184;8.538;2024-02-16T09:18:10;4.35;;;1.80;;
7515;SDS011;3799;47.184;8.538;2024-02-16T09:20:37;6.38;;;1.63;;
7515;SDS011;3799;47.184;8.538;2024-02-16T09:23:04;3.67;;;1.48;;
7515;SDS011;3799;47.184;8.538;2024-02-16T09:25:33;3.40;;;1.48;;
7515;SDS011;3799;47.184;8.538;2024-02-16T09:28:01;5.35;;;1.80;;
7515;SDS011;3799;47.184;8.538;2024-02-16T09:30:29;3.88;;;1.95;;
7515;SDS011;3799;47.184;8.538;2024-02-16T09:32:56;3.13;;;1.55;;
7515;SDS011;3799;47.184;8.538;2024-02-16T09:35:25;3.50;;;1.50;;
7515;SDS011;3799;47.184;8.538;2024-02-16T09:37:52;3.40;;;1.33;;
7515;SDS011;3799;47.184;8.538;2024-02-16T09:40:20;5.35;;;1.58;;
7515;SDS011;3799;47.184;8.538;2024-02-16T09:42:48;3.67;;;1.17;;
7515;SDS011;3799;47.184;8.538;2024-02-16T09:45:16;2.63;;;1.27;;
7515;SDS011;3799;47.184;8.538;2024-02-16T09:47:46;5.22;;;2.08;;
7515;SDS011;3799;47.184;8.538;2024-02-16T09:50:29;4.60;;;1.25;;
7515;SDS011;3799;47.184;8.538;2024-02-16T09:53:00;2.97;;;1.20;;
7515;SDS011;3799;47.184;8.538;2024-02-16T09:55:35;4.47;;;1.23;;
7515;SDS011;3799;47.184;8.538;2024-02-16T09:58:07;3.28;;;0.95;;
7515;SDS011;3799;47.184;8.538;2024-02-16T10:00:35;2.30;;;0.93;;
7515;SDS011;3799;47.184;8.538;2024-02-16T10:03:03;2.50;;;0.98;;
7515;SDS011;3799;47.184;8.538;2024-02-16T10:05:32;2.80;;;0.80;;
7515;SDS011;3799;47.184;8.538;2024-02-16T10:08:13;3.72;;;1.13;;
7515;SDS011;3799;47.184;8.538;2024-02-16T10:10:41;2.75;;;1.10;;
7515;SDS011;3799;47.184;8.538;2024-02-16T10:13:10;2.20;;;0.95;;
7515;SDS011;3799;47.184;8.538;2024-02-16T10:15:38;2.65;;;0.85;;
7515;SDS011;3799;47.184;8.538;2024-02-16T10:18:07;3.03;;;1.13;;
7515;SDS011;3799;47.184;8.538;2024-02-16T10:20:35;2.72;;;0.82;;
7515;SDS011;3799;47.184;8.538;2024-02-16T10:23:07;3.78;;;1.00;;
7515;SDS011;3799;47.184;8.538;2024-02-16T10:25:37;3.00;;;1.10;;
7515;SDS011;3799;47.184;8.538;2024-02-16T10:28:08;3.63;;;1.80;;
7515;SDS011;3799;47.184;8.538;2024-02-16T10:30:41;3.55;;;1.23;;
7515;SDS011;3799;47.184;8.538;2024-02-16T10:33:13;3.42;;;1.50;;
7515;SDS011;3799;47.184;8.538;2024-02-16T10:35:41;3.55;;;1.77;;
7515;SDS011;3799;47.184;8.538;2024-02-16T10:38:10;5.50;;;2.13;;
7515;SDS011;3799;47.184;8.538;2024-02-16T10:40:39;3.08;;;1.48;;
7515;SDS011;3799;47.184;8.538;2024-02-16T10:43:08;3.40;;;1.55;;
7515;SDS011;3799;47.184;8.538;2024-02-16T10:45:37;3.45;;;1.48;;
7515;SDS011;3799;47.184;8.538;2024-02-16T10:48:06;3.42;;;1.73;;
7515;SDS011;3799;47.184;8.538;2024-02-16T10:50:38;4.15;;;1.42;;
7515;SDS011;3799;47.184;8.538;2024-02-16T10:53:12;4.30;;;1.35;;
7515;SDS011;3799;47.184;8.538;2024-02-16T10:55:46;3.70;;;1.70;;
7515;SDS011;3799;47.184;8.538;2024-02-16T10:58:14;4.50;;;1.40;;
7515;SDS011;3799;47.184;8.538;2024-02-16T11:00:52;4.15;;;1.73;;
7515;SDS011;3799;47.184;8.538;2024-02-16T11:03:22;3.97;;;1.80;;
7515;SDS011;3799;47.184;8.538;2024-02-16T11:05:55;3.75;;;1.85;;
7515;SDS011;3799;47.184;8.538;2024-02-16T11:08:26;4.70;;;1.85;;
7515;SDS011;3799;47.184;8.538;2024-02-16T11:13:31;5.07;;;2.15;;
7515;SDS011;3799;47.184;8.538;2024-02-16T11:16:03;4.18;;;2.13;;
7515;SDS011;3799;47.184;8.538;2024-02-16T11:18:39;3.33;;;2.00;;
7515;SDS011;3799;47.184;8.538;2024-02-16T11:21:19;6.28;;;2.10;;
7515;SDS011;3799;47.184;8.538;2024-02-16T11:23:49;5.57;;;2.10;;
7515;SDS011;3799;47.184;8.538;2024-02-16T11:26:18;4.20;;;2.10;;
7515;SDS011;3799;47.184;8.538;2024-02-16T11:28:46;4.80;;;1.55;;
7515;SDS011;3799;47.184;8.538;2024-02-16T11:31:13;3.15;;;1.55;;
7515;SDS011;3799;47.184;8.538;2024-02-16T11:33:44;3.75;;;1.67;;
7515;SDS011;3799;47.184;8.538;2024-02-16T11:36:12;5.38;;;1.33;;
7515;SDS011;3799;47.184;8.538;2024-02-16T11:38:40;3.20;;;1.80;;
7515;SDS011;3799;47.184;8.538;2024-02-16T11:41:08;3.10;;;1.33;;
7515;SDS011;3799;47.184;8.538;2024-02-16T11:43:36;5.10;;;1.48;;
7515;SDS011;3799;47.184;8.538;2024-02-16T11:46:12;3.88;;;1.70;;
7515;SDS011;3799;47.184;8.538;2024-02-16T11:48:42;3.75;;;1.50;;
7515;SDS011;3799;47.184;8.538;2024-02-16T11:51:14;3.22;;;1.27;;
7515;SDS011;3799;47.184;8.538;2024-02-16T11:53:44;2.88;;;1.15;;
7515;SDS011;3799;47.184;8.538;2024-02-16T11:56:21;4.32;;;1.42;;
7515;SDS011;3799;47.184;8.538;2024-02-16T11:58:55;2.63;;;0.98;;
7515;SDS011;3799;47.184;8.538;2024-02-16T12:01:23;2.63;;;1.17;;
7515;SDS011;3799;47.184;8.538;2024-02-16T12:03:52;3.17;;;0.82;;
7515;SDS011;3799;47.184;8.538;2024-02-16T12:06:20;1.80;;;0.75;;
7515;SDS011;3799;47.184;8.538;2024-02-16T12:08:49;3.45;;;1.40;;
7515;SDS011;3799;47.184;8.538;2024-02-16T12:11:23;3.05;;;1.23;;
7515;SDS011;3799;47.184;8.538;2024-02-16T12:13:51;4.20;;;1.35;;
7515;SDS011;3799;47.184;8.538;2024-02-16T12:16:19;3.35;;;1.45;;
7515;SDS011;3799;47.184;8.538;2024-02-16T12:18:47;4.38;;;1.55;;
7515;SDS011;3799;47.184;8.538;2024-02-16T12:21:17;3.72;;;1.30;;
7515;SDS011;3799;47.184;8.538;2024-02-16T12:23:46;5.03;;;1.58;;
7515;SDS011;3799;47.184;8.538;2024-02-16T12:26:16;7.22;;;1.73;;
7515;SDS011;3799;47.184;8.538;2024-02-16T12:28:47;2.75;;;1.40;;
7515;SDS011;3799;47.184;8.538;2024-02-16T12:31:21;2.92;;;1.10;;
7515;SDS011;3799;47.184;8.538;2024-02-16T12:33:49;2.60;;;1.10;;
7515;SDS011;3799;47.184;8.538;2024-02-16T12:36:20;2.42;;;1.20;;
7515;SDS011;3799;47.184;8.538;2024-02-16T12:38:50;3.00;;;1.40;;
7515;SDS011;3799;47.184;8.538;2024-02-16T12:41:19;3.45;;;1.15;;
7515;SDS011;3799;47.184;8.538;2024-02-16T12:43:47;3.08;;;1.02;;
7515;SDS011;3799;47.184;8.538;2024-02-16T12:46:15;6.32;;;1.63;;
7515;SDS011;3799;47.184;8.538;2024-02-16T12:48:44;3.10;;;1.35;;
7515;SDS011;3799;47.184;8.538;2024-02-16T12:51:16;3.05;;;1.45;;
7515;SDS011;3799;47.184;8.538;2024-02-16T12:53:45;5.80;;;1.40;;
7515;SDS011;3799;47.184;8.538;2024-02-16T12:56:13;3.20;;;1.00;;
7515;SDS011;3799;47.184;8.538;2024-02-16T12:58:41;3.45;;;1.42;;
7515;SDS011;3799;47.184;8.538;2024-02-16T13:01:10;5.00;;;1.48;;
7515;SDS011;3799;47.184;8.538;2024-02-16T13:06:21;4.30;;;1.17;;
7515;SDS011;3799;47.184;8.538;2024-02-16T13:08:55;3.40;;;1.00;;
7515;SDS011;3799;47.184;8.538;2024-02-16T13:11:24;3.03;;;1.38;;
7515;SDS011;3799;47.184;8.538;2024-02-16T13:13:51;4.05;;;1.42;;
7515;SDS011;3799;47.184;8.538;2024-02-16T13:16:19;2.50;;;1.20;;
7515;SDS011;3799;47.184;8.538;2024-02-16T13:18:51;4.55;;;1.30;;
7515;SDS011;3799;47.184;8.538;2024-02-16T13:21:21;3.70;;;1.23;;
7515;SDS011;3799;47.184;8.538;2024-02-16T13:23:49;2.55;;;1.70;;
7515;SDS011;3799;47.184;8.538;2024-02-16T13:26:19;3.40;;;1.33;;
7515;SDS011;3799;47.184;8.538;2024-02-16T13:28:47;4.20;;;1.25;;
7515;SDS011;3799;47.184;8.538;2024-02-16T13:31:15;2.92;;;1.30;;
7515;SDS011;3799;47.184;8.538;2024-02-16T13:33:44;3.45;;;1.00;;
7515;SDS011;3799;47.184;8.538;2024-02-16T13:36:17;5.55;;;1.20;;
7515;SDS011;3799;47.184;8.538;2024-02-16T13:38:44;3.25;;;1.35;;
7515;SDS011;3799;47.184;8.538;2024-02-16T13:41:12;5.18;;;1.02;;
7515;SDS011;3799;47.184;8.538;2024-02-16T13:43:44;3.35;;;0.93;;
7515;SDS011;3799;47.184;8.538;2024-02-16T13:46:12;4.45;;;1.20;;
7515;SDS011;3799;47.184;8.538;2024-02-16T13:48:43;3.78;;;0.75;;
7515;SDS011;3799;47.184;8.538;2024-02-16T13:51:10;2.92;;;1.00;;
7515;SDS011;3799;47.184;8.538;2024-02-16T13:53:41;4.28;;;1.10;;
7515;SDS011;3799;47.184;8.538;2024-02-16T13:56:09;3.15;;;0.77;;
7515;SDS011;3799;47.184;8.538;2024-02-16T13:58:39;2.17;;;0.68;;
7515;SDS011;3799;47.184;8.538;2024-02-16T14:01:12;2.47;;;0.77;;
7515;SDS011;3799;47.184;8.538;2024-02-16T14:03:41;2.95;;;0.85;;
7515;SDS011;3799;47.184;8.538;2024-02-16T14:06:08;3.13;;;0.88;;
7515;SDS011;3799;47.184;8.538;2024-02-16T14:11:15;5.22;;;1.20;;
7515;SDS011;3799;47.184;8.538;2024-02-16T14:13:43;3.30;;;1.00;;
7515;SDS011;3799;47.184;8.538;2024-02-16T14:16:10;3.67;;;0.60;;
7515;SDS011;3799;47.184;8.538;2024-02-16T14:18:38;4.72;;;1.10;;
7515;SDS011;3799;47.184;8.538;2024-02-16T14:21:08;6.20;;;1.05;;
7515;SDS011;3799;47.184;8.538;2024-02-16T14:23:37;2.30;;;0.60;;
7515;SDS011;3799;47.184;8.538;2024-02-16T14:26:04;2.95;;;0.77;;
7515;SDS011;3799;47.184;8.538;2024-02-16T14:28:32;2.15;;;0.63;;
7515;SDS011;3799;47.184;8.538;2024-02-16T14:31:00;2.60;;;0.52;;
7515;SDS011;3799;47.184;8.538;2024-02-16T14:33:29;2.97;;;0.50;;
7515;SDS011;3799;47.184;8.538;2024-02-16T14:36:03;2.47;;;0.50;;
7515;SDS011;3799;47.184;8.538;2024-02-16T14:38:31;1.38;;;0.45;;
7515;SDS011;3799;47.184;8.538;2024-02-16T14:41:03;2.63;;;0.85;;
7515;SDS011;3799;47.184;8.538;2024-02-16T14:43:32;3.47;;;0.80;;
7515;SDS011;3799;47.184;8.538;2024-02-16T14:46:00;2.78;;;0.77;;
7515;SDS011;3799;47.184;8.538;2024-02-16T14:48:31;2.67;;;0.77;;
7515;SDS011;3799;47.184;8.538;2024-02-16T14:50:59;2.38;;;0.85;;
7515;SDS011;3799;47.184;8.538;2024-02-16T14:53:27;3.40;;;0.90;;
7515;SDS011;3799;47.184;8.538;2024-02-16T14:56:03;2.75;;;0.90;;
7515;SDS011;3799;47.184;8.538;2024-02-16T14:58:33;2.45;;;0.60;;
7515;SDS011;3799;47.184;8.538;2024-02-16T15:01:01;1.73;;;0.63;;
7515;SDS011;3799;47.184;8.538;2024-02-16T15:03:34;1.95;;;0.70;;
7515;SDS011;3799;47.184;8.538;2024-02-16T15:06:02;4.00;;;0.60;;
7515;SDS011;3799;47.184;8.538;2024-02-16T15:08:31;4.90;;;0.70;;
7515;SDS011;3799;47.184;8.538;2024-02-16T15:10:58;2.17;;;0.82;;
7515;SDS011;3799;47.184;8.538;2024-02-16T15:13:31;2.47;;;0.50;;
7515;SDS011;3799;47.184;8.538;2024-02-16T15:15:59;5.47;;;0.93;;
7515;SDS011;3799;47.184;8.538;2024-02-16T15:18:27;3.33;;;0.80;;
7515;SDS011;3799;47.184;8.538;2024-02-16T15:20:57;2.65;;;0.52;;
7515;SDS011;3799;47.184;8.538;2024-02-16T15:23:24;2.53;;;0.85;;
7515;SDS011;3799;47.184;8.538;2024-02-16T15:25:52;1.17;;;0.63;;
7515;SDS011;3799;47.184;8.538;2024-02-16T15:28:20;2.42;;;0.77;;
7515;SDS011;3799;47.184;8.538;2024-02-16T15:30:50;1.50;;;0.50;;
7515;SDS011;3799;47.184;8.538;2024-02-16T15:33:18;2.42;;;0.82;;
7515;SDS011;3799;47.184;8.538;2024-02-16T15:35:49;2.22;;;0.60;;
7515;SDS011;3799;47.184;8.538;2024-02-16T15:38:17;2.80;;;0.80;;
7515;SDS011;3799;47.184;8.538;2024-02-16T15:40:44;2.97;;;0.70;;
7515;SDS011;3799;47.184;8.538;2024-02-16T15:43:14;2.25;;;0.82;;
7515;SDS011;3799;47.184;8.538;2024-02-16T15:45:42;1.83;;;0.88;;